Montrose, AL (36559)

12:15 AM CST on February 08, 2016 (GMT -0600)
Ecor Rouge | | Change Station
CLOSE
Current Station
Personal Weather Station
Location: Montrose, AL
Elevation: 0 ft
Nearby Weather Stations
Active Advisory: Wind Advisory

Elev 0 ft 30.56 °N, 87.90 °W | Updated 14 minutes ago

Clear
Clear
51.9 °F
Feels Like 51.9 °F
N
13.0
Wind Variable Wind from WSW
Gusts 15.0 mph

Today
High -- | Low -- °F
--% Chance of Precip.
Yesterday
High -- | Low -- °F
Precip. -- in
Pressure 30.12 in
Visibility 10.0 miles
Clouds Clear
Dew Point 46 °F
Humidity 80%
Rainfall 0.00 in
Snow Depth Not available.
6:38 AM 5:33 PM
Waning Crescent, 0% visible
METAR KCQF 080555Z AUTO 26006KT 10SM CLR 10/05 A3012 RMK AO2
Pressure 30.12 in
Visibility 10.0 miles
Clouds Clear
Dew Point 46 °F
Humidity 80%
Rainfall 0.00 in
Snow Depth Not available.
6:38 AM 5:33 PM
Waning Crescent, 0% visible
METAR KCQF 080555Z AUTO 26006KT 10SM CLR 10/05 A3012 RMK AO2

10-Day Weather Forecast

Almanac

Astronomy

Feb. 08, 2016 Rise Set
Actual Time
Civil Twilight
Nautical Twilight
Astronomical Twilight
Moon
Length of Visible Light
Length of Day
Tomorrow will be .
, % of the Moon is Illuminated

Today's Extremes

State Highs State Lows

Community

WunderPhotos

Upload Photos

1,891,393 photos uploaded!

WunderBlog® & News

Nearby

Air Quality

  Air Quality AQ Index Pollutant
Not available.

Snow Depth

Station Depth Elevation

Earthquake Activity

City Distance Mag. Time & Date
Minimum magnitude displayed is 2.5.

Coastal Water Temperatures

Place Temperature

Stations

Nearby Weather Stations

Station Location Temp. Windchill Dew Point Humidity Wind Precip. Elev Updated Type
                   

Watches & Warnings

Wind Advisory
Issued: 10:35 PM CST Feb. 7, 2016 – National Weather Service

... Wind Advisory remains in effect from noon to 6 PM CST Monday...

* timing... Monday afternoon.

* Winds... northwest and increasing to 20 to 25 mph with frequent
higher gusts in excess of 30 mph.

Precautionary/preparedness actions...

A Wind Advisory means that winds of 30 to 39 mph are expected.
Winds this strong can make driving difficult... especially for high
profile vehicles. Use extra caution.